createdAt,value
2023-03-04T00:01:47.303Z,64.15
2023-03-04T00:04:49.093Z,64.11
2023-03-04T00:07:50.910Z,64.15
2023-03-04T00:10:52.723Z,64.40
2023-03-04T00:13:55.640Z,64.56
2023-03-04T00:16:57.635Z,64.56
2023-03-04T00:19:59.710Z,64.71
2023-03-04T00:23:01.590Z,64.88
2023-03-04T00:26:03.432Z,64.57
2023-03-04T00:29:05.476Z,65.10
2023-03-04T00:32:07.426Z,65.10
2023-03-04T00:35:09.655Z,64.91
2023-03-04T00:38:11.474Z,65.28
2023-03-04T00:41:13.342Z,65.29
2023-03-04T00:44:16.583Z,65.16
2023-03-04T00:47:18.466Z,65.47
2023-03-04T00:50:20.423Z,65.51
2023-03-04T00:53:24.106Z,65.72
2023-03-04T00:56:25.979Z,65.71
2023-03-04T00:59:27.748Z,65.98
2023-03-04T01:02:29.617Z,65.86
2023-03-04T01:05:34.174Z,66.28
2023-03-04T01:08:36.333Z,66.27
2023-03-04T01:11:38.201Z,66.26
2023-03-04T01:14:40.032Z,66.24
2023-03-04T01:17:42.167Z,66.23
2023-03-04T01:20:44.010Z,65.83
2023-03-04T01:23:45.781Z,65.34
2023-03-04T01:26:47.548Z,64.86
2023-03-04T01:29:49.388Z,64.65
2023-03-04T01:32:51.143Z,64.35
2023-03-04T01:35:53.077Z,64.27
2023-03-04T01:38:54.910Z,64.10
2023-03-04T01:41:56.894Z,63.50
2023-03-04T01:44:58.854Z,63.73
2023-03-04T01:48:00.746Z,63.28
2023-03-04T01:51:04.060Z,63.35
2023-03-04T01:54:06.213Z,63.46
2023-03-04T01:57:19.381Z,63.30
2023-03-04T02:00:31.261Z,63.14
2023-03-04T02:03:33.123Z,63.17
2023-03-04T02:06:38.438Z,63.71
2023-03-04T02:09:40.346Z,63.14
2023-03-04T02:12:42.974Z,63.24
2023-03-04T02:15:46.085Z,63.21
2023-03-04T02:18:48.069Z,62.98
2023-03-04T02:21:49.768Z,62.83
2023-03-04T02:25:11.122Z,62.90
2023-03-04T02:28:13.034Z,62.54
2023-03-04T02:31:25.061Z,62.27
2023-03-04T02:34:36.889Z,62.38
2023-03-04T02:37:38.789Z,62.16
2023-03-04T02:40:45.137Z,62.14
2023-03-04T02:43:50.335Z,61.84
2023-03-04T02:46:53.880Z,61.48
2023-03-04T02:49:56.426Z,61.71
2023-03-04T02:52:58.208Z,61.70
2023-03-04T02:55:59.995Z,61.77
2023-03-04T02:59:06.387Z,61.61
2023-03-04T03:02:09.276Z,61.97
2023-03-04T03:05:13.022Z,61.83
2023-03-04T03:08:15.669Z,62.04
2023-03-04T03:11:17.532Z,61.93
2023-03-04T03:14:20.036Z,61.90
2023-03-04T03:17:22.018Z,61.71
2023-03-04T03:20:23.932Z,61.94
2023-03-04T03:23:26.596Z,61.81
2023-03-04T03:26:28.327Z,62.09
2023-03-04T03:29:30.122Z,62.02
2023-03-04T03:32:32.004Z,62.14
2023-03-04T03:35:34.364Z,62.32
2023-03-04T03:38:37.143Z,62.28
2023-03-04T03:41:38.870Z,62.28
2023-03-04T03:44:40.699Z,62.53
2023-03-04T03:47:42.702Z,62.63
2023-03-04T03:50:45.612Z,62.70
2023-03-04T03:53:47.465Z,62.67
2023-03-04T03:56:49.193Z,63.12
2023-03-04T03:59:51.024Z,63.04
2023-03-04T04:02:55.807Z,62.97
2023-03-04T04:05:57.680Z,63.10
2023-03-04T04:08:59.745Z,63.31
2023-03-04T04:12:01.546Z,63.05
2023-03-04T04:15:04.043Z,63.46
2023-03-04T04:18:07.264Z,63.54
2023-03-04T04:21:09.696Z,63.45
2023-03-04T04:24:11.777Z,63.16
2023-03-04T04:27:14.075Z,63.64
2023-03-04T04:30:16.088Z,63.35
2023-03-04T04:33:18.079Z,63.50
2023-03-04T04:36:20.014Z,63.38
2023-03-04T04:39:22.513Z,63.30
2023-03-04T04:42:24.490Z,63.38
2023-03-04T04:45:26.212Z,63.14
2023-03-04T04:48:28.105Z,63.12
2023-03-04T04:51:30.036Z,63.26
2023-03-04T04:54:32.000Z,63.30
2023-03-04T04:57:34.745Z,63.34
2023-03-04T05:00:36.591Z,63.52
2023-03-04T05:03:40.087Z,63.66
2023-03-04T05:06:42.150Z,63.49
2023-03-04T05:09:44.024Z,63.60
2023-03-04T05:12:45.832Z,63.47
2023-03-04T05:15:48.048Z,63.96
2023-03-04T05:18:50.130Z,63.90
2023-03-04T05:21:52.034Z,63.87
2023-03-04T05:24:54.006Z,63.89
2023-03-04T05:27:55.770Z,64.19
2023-03-04T05:30:57.771Z,64.00
2023-03-04T05:33:59.548Z,63.82
2023-03-04T05:37:01.549Z,63.60
2023-03-04T05:40:04.689Z,63.60
2023-03-04T05:43:06.659Z,63.16
2023-03-04T05:46:13.277Z,63.25
2023-03-04T05:49:15.094Z,62.65
2023-03-04T05:52:16.789Z,62.71
2023-03-04T05:55:19.110Z,62.67
2023-03-04T05:58:21.812Z,62.81
2023-03-04T06:01:23.742Z,62.51
2023-03-04T06:04:25.671Z,62.36
2023-03-04T06:07:27.446Z,62.48
2023-03-04T06:10:29.295Z,62.43
2023-03-04T06:13:31.359Z,62.43
2023-03-04T06:16:33.624Z,61.93
2023-03-04T06:19:35.734Z,61.96
2023-03-04T06:22:37.727Z,62.15
2023-03-04T06:25:39.622Z,61.60
2023-03-04T06:28:42.644Z,61.69
2023-03-04T06:31:44.454Z,61.66
2023-03-04T06:34:46.376Z,61.59
2023-03-04T06:37:48.515Z,61.60
2023-03-04T06:40:50.364Z,61.33
2023-03-04T06:43:54.467Z,61.47
2023-03-04T06:46:56.426Z,61.03
2023-03-04T06:49:58.479Z,60.66
2023-03-04T06:53:00.219Z,60.54
2023-03-04T06:56:02.121Z,60.47
2023-03-04T06:59:03.961Z,59.84
2023-03-04T07:02:06.400Z,59.68
2023-03-04T07:05:10.438Z,59.68
2023-03-04T07:08:12.396Z,59.58
2023-03-04T07:11:15.125Z,59.55
2023-03-04T07:14:16.965Z,59.40
2023-03-04T07:17:18.660Z,59.09
2023-03-04T07:20:20.530Z,59.32
2023-03-04T07:23:22.469Z,58.92
2023-03-04T07:26:24.414Z,58.80
2023-03-04T07:29:26.244Z,59.08
2023-03-04T07:32:28.116Z,58.85
2023-03-04T07:35:30.096Z,58.97
2023-03-04T07:38:32.183Z,58.91
2023-03-04T07:41:37.405Z,58.88
2023-03-04T07:44:39.503Z,59.09
2023-03-04T07:47:41.609Z,59.15
2023-03-04T07:50:43.508Z,59.40
2023-03-04T07:53:49.073Z,59.68
2023-03-04T07:56:51.146Z,60.13
2023-03-04T07:59:53.058Z,60.57
2023-03-04T08:02:55.212Z,61.14
2023-03-04T08:05:57.140Z,61.32
2023-03-04T08:09:06.008Z,61.71
2023-03-04T08:12:07.841Z,61.91
2023-03-04T08:15:10.063Z,62.27
2023-03-04T08:18:12.779Z,62.81
2023-03-04T08:21:16.761Z,63.38
2023-03-04T08:24:18.645Z,63.68
2023-03-04T08:27:20.597Z,63.57
2023-03-04T08:30:22.324Z,63.69
2023-03-04T08:33:24.140Z,63.96
2023-03-04T08:36:25.984Z,64.33
2023-03-04T08:39:27.749Z,63.97
2023-03-04T08:42:29.448Z,64.28
2023-03-04T08:45:31.293Z,64.27
2023-03-04T08:48:33.753Z,65.09
2023-03-04T08:51:35.930Z,66.16
2023-03-04T08:54:37.878Z,66.91
2023-03-04T08:57:39.729Z,67.22
2023-03-04T09:00:44.233Z,67.05
2023-03-04T09:03:46.084Z,67.06
2023-03-04T09:06:47.909Z,67.18
2023-03-04T09:09:49.796Z,67.77
2023-03-04T09:12:52.176Z,68.02
2023-03-04T09:15:54.154Z,67.92
2023-03-04T09:18:56.159Z,67.84
2023-03-04T09:21:59.463Z,67.99
2023-03-04T09:25:01.341Z,67.65
2023-03-04T09:28:03.365Z,67.37
2023-03-04T09:31:11.966Z,67.19
2023-03-04T09:34:13.899Z,67.23
2023-03-04T09:37:15.862Z,67.23
2023-03-04T09:40:23.845Z,67.55
2023-03-04T09:43:32.105Z,67.71
2023-03-04T09:46:36.327Z,67.59
2023-03-04T09:49:41.621Z,68.05
2023-03-04T09:52:55.532Z,68.73
2023-03-04T09:55:59.123Z,68.61
2023-03-04T09:59:24.175Z,68.71
2023-03-04T10:02:47.162Z,68.44
2023-03-04T10:05:55.046Z,68.51
2023-03-04T10:09:04.886Z,68.40
2023-03-04T10:12:12.437Z,68.15
2023-03-04T10:15:38.241Z,68.03
2023-03-04T10:18:48.393Z,68.06
2023-03-04T10:21:52.291Z,67.38
2023-03-04T10:24:57.589Z,67.07
2023-03-04T10:28:17.456Z,66.67
2023-03-04T10:31:34.435Z,67.07
2023-03-04T10:34:36.247Z,66.57
2023-03-04T10:37:50.979Z,66.57
2023-03-04T10:40:52.789Z,66.14
2023-03-04T10:44:04.982Z,65.77
2023-03-04T10:47:11.791Z,65.02
2023-03-04T10:50:23.109Z,64.10
2023-03-04T10:53:30.721Z,64.20
2023-03-04T10:56:39.897Z,64.58
2023-03-04T10:59:53.618Z,64.92
2023-03-04T11:03:29.690Z,65.23
2023-03-04T11:06:32.707Z,64.78
2023-03-04T11:09:34.520Z,64.75
2023-03-04T11:12:36.353Z,64.50
2023-03-04T11:15:58.360Z,63.98
2023-03-04T11:19:11.121Z,63.87
2023-03-04T11:22:17.222Z,63.08
2023-03-04T11:25:34.159Z,62.85
2023-03-04T11:28:44.890Z,62.33
2023-03-04T11:31:53.645Z,62.03
2023-03-04T11:35:01.546Z,61.76
2023-03-04T11:38:15.020Z,62.23
2023-03-04T11:41:23.753Z,62.26
2023-03-04T11:44:25.699Z,61.95
2023-03-04T11:47:42.244Z,61.76
2023-03-04T11:50:57.679Z,62.06
2023-03-04T11:54:14.372Z,61.93
2023-03-04T11:57:31.101Z,62.00
2023-03-04T12:00:51.047Z,62.19
2023-03-04T12:03:55.581Z,61.87
2023-03-04T12:07:35.759Z,61.88
2023-03-04T12:11:02.108Z,61.47
2023-03-04T12:14:23.056Z,61.92
2023-03-04T12:17:32.970Z,61.20
2023-03-04T12:20:46.538Z,60.67
2023-03-04T12:24:06.662Z,60.23
2023-03-04T12:27:14.395Z,59.63
2023-03-04T12:30:38.076Z,58.86
2023-03-04T12:33:57.883Z,59.22
2023-03-04T12:37:27.381Z,59.32
2023-03-04T12:40:38.487Z,59.72
2023-03-04T12:43:51.984Z,60.08
2023-03-04T12:47:11.726Z,59.72
2023-03-04T12:50:55.141Z,58.94
2023-03-04T12:54:03.082Z,58.70
2023-03-04T12:57:12.612Z,58.70
2023-03-04T13:00:27.111Z,59.64
2023-03-04T13:03:31.947Z,59.72
2023-03-04T13:06:49.129Z,59.49
2023-03-04T13:10:09.820Z,59.84
2023-03-04T13:13:38.398Z,60.36
2023-03-04T13:16:44.094Z,60.51
2023-03-04T13:19:51.118Z,60.42
2023-03-04T13:23:05.247Z,60.07
2023-03-04T13:26:28.746Z,59.79
2023-03-04T13:29:33.900Z,59.93
2023-03-04T13:32:38.736Z,59.90
2023-03-04T13:35:49.708Z,60.03
2023-03-04T13:39:23.515Z,59.84
2023-03-04T13:42:44.759Z,59.54
2023-03-04T13:45:46.555Z,59.64
2023-03-04T13:48:51.499Z,59.58
2023-03-04T13:51:53.661Z,59.21
2023-03-04T13:55:33.839Z,59.10
2023-03-04T13:58:36.755Z,58.74
2023-03-04T14:01:41.636Z,59.18
2023-03-04T14:04:54.572Z,58.97
2023-03-04T14:07:56.377Z,58.92
2023-03-04T14:10:58.345Z,58.71
2023-03-04T14:14:04.622Z,58.50
2023-03-04T14:17:07.177Z,58.27
2023-03-04T14:20:27.916Z,57.98
2023-03-04T14:23:36.479Z,57.97
2023-03-04T14:26:39.295Z,57.89
2023-03-04T14:29:41.065Z,58.02
2023-03-04T14:32:43.259Z,57.85
2023-03-04T14:35:50.698Z,57.65
2023-03-04T14:38:58.053Z,57.98
2023-03-04T14:42:07.554Z,57.52
2023-03-04T14:45:15.260Z,57.67
2023-03-04T14:48:33.442Z,57.92
2023-03-04T14:51:41.683Z,57.53
2023-03-04T14:54:43.647Z,57.84
2023-03-04T14:57:58.341Z,57.87
2023-03-04T15:01:07.548Z,58.02
2023-03-04T15:04:12.281Z,58.04
2023-03-04T15:07:21.456Z,58.14
2023-03-04T15:10:27.871Z,58.25
2023-03-04T15:13:38.841Z,58.42
2023-03-04T15:16:56.751Z,58.40
2023-03-04T15:20:21.048Z,58.63
2023-03-04T15:23:23.177Z,58.68
2023-03-04T15:26:25.888Z,58.82
2023-03-04T15:29:27.640Z,59.13
2023-03-04T15:32:29.999Z,59.18
2023-03-04T15:35:33.493Z,59.49
2023-03-04T15:38:35.341Z,59.58
2023-03-04T15:41:37.304Z,59.74
2023-03-04T15:44:39.350Z,60.16
2023-03-04T15:47:41.064Z,60.28
2023-03-04T15:50:49.882Z,60.68
2023-03-04T15:53:54.874Z,60.94
2023-03-04T15:56:58.500Z,61.24
2023-03-04T16:00:00.562Z,61.53
2023-03-04T16:03:02.370Z,61.96
2023-03-04T16:06:08.386Z,62.34
2023-03-04T16:09:14.525Z,62.69
2023-03-04T16:12:16.397Z,62.74
2023-03-04T16:15:29.099Z,63.63
2023-03-04T16:18:31.161Z,63.69
2023-03-04T16:21:33.601Z,64.02
2023-03-04T16:24:35.387Z,64.29
2023-03-04T16:27:37.196Z,64.66
2023-03-04T16:30:39.533Z,64.65
2023-03-04T16:33:41.801Z,64.97
2023-03-04T16:36:43.723Z,65.01
2023-03-04T16:39:46.374Z,65.30
2023-03-04T16:42:48.148Z,65.20
2023-03-04T16:45:50.135Z,65.21
2023-03-04T16:48:51.976Z,64.97
2023-03-04T16:51:53.737Z,64.74
2023-03-04T16:54:56.308Z,64.44
2023-03-04T16:57:58.320Z,64.59
2023-03-04T17:01:00.804Z,64.19
2023-03-04T17:04:02.581Z,64.37
2023-03-04T17:07:04.567Z,64.22
2023-03-04T17:10:06.677Z,64.05
2023-03-04T17:13:08.882Z,64.24
2023-03-04T17:16:11.383Z,63.96
2023-03-04T17:19:13.115Z,63.69
2023-03-04T17:22:14.893Z,63.36
2023-03-04T17:25:16.801Z,62.74
2023-03-04T17:28:18.534Z,61.83
2023-03-04T17:31:21.189Z,61.15
2023-03-04T17:34:23.167Z,60.74
2023-03-04T17:37:25.727Z,60.33
2023-03-04T17:40:27.398Z,59.73
2023-03-04T17:43:29.226Z,59.28
2023-03-04T17:46:31.155Z,59.14
2023-03-04T17:49:34.340Z,59.11
2023-03-04T17:52:36.198Z,59.15
2023-03-04T17:55:37.979Z,58.70
2023-03-04T17:58:40.247Z,58.25
2023-03-04T18:01:45.137Z,57.53
2023-03-04T18:04:50.512Z,57.15
2023-03-04T18:07:52.444Z,56.92
2023-03-04T18:10:54.411Z,56.25
2023-03-04T18:13:56.683Z,55.91
2023-03-04T18:16:58.543Z,55.68
2023-03-04T18:20:01.733Z,55.37
2023-03-04T18:23:03.930Z,54.62
2023-03-04T18:26:05.855Z,54.46
2023-03-04T18:29:07.661Z,54.23
2023-03-04T18:32:09.628Z,53.48
2023-03-04T18:35:12.157Z,53.17
2023-03-04T18:38:13.912Z,52.93
2023-03-04T18:41:16.183Z,52.59
2023-03-04T18:44:17.986Z,52.68
2023-03-04T18:47:20.188Z,52.59
2023-03-04T18:50:24.610Z,52.54
2023-03-04T18:53:29.856Z,52.28
2023-03-04T18:56:38.259Z,52.10
2023-03-04T19:00:01.076Z,52.09
2023-03-04T19:03:12.277Z,51.97
2023-03-04T19:06:14.324Z,52.06
2023-03-04T19:09:16.267Z,52.04
2023-03-04T19:12:18.222Z,52.27
2023-03-04T19:15:20.252Z,52.19
2023-03-04T19:18:22.082Z,52.64
2023-03-04T19:21:23.810Z,52.91
2023-03-04T19:24:25.741Z,53.17
2023-03-04T19:27:27.801Z,53.10
2023-03-04T19:30:29.885Z,53.19
2023-03-04T19:33:31.809Z,53.07
2023-03-04T19:36:33.605Z,53.30
2023-03-04T19:39:35.411Z,53.53
2023-03-04T19:42:37.537Z,53.31
2023-03-04T19:45:39.320Z,53.50
2023-03-04T19:48:41.280Z,53.57
2023-03-04T19:51:43.066Z,53.85
2023-03-04T19:54:44.895Z,54.32
2023-03-04T19:57:46.668Z,54.62
2023-03-04T20:00:50.194Z,54.83
2023-03-04T20:03:52.079Z,55.00
2023-03-04T20:06:53.769Z,55.22
2023-03-04T20:09:56.398Z,55.80
2023-03-04T20:12:58.497Z,55.89
2023-03-04T20:16:00.399Z,56.22
2023-03-04T20:19:02.289Z,56.52
2023-03-04T20:22:05.698Z,56.63
2023-03-04T20:25:07.817Z,56.79
2023-03-04T20:28:12.565Z,57.12
2023-03-04T20:31:20.777Z,57.41
2023-03-04T20:34:22.858Z,56.92
2023-03-04T20:37:25.112Z,56.95
2023-03-04T20:40:27.076Z,57.37
2023-03-04T20:43:31.260Z,57.67
2023-03-04T20:46:45.151Z,57.63
2023-03-04T20:49:47.011Z,57.73
2023-03-04T20:52:48.850Z,57.67
2023-03-04T20:55:50.587Z,57.42
2023-03-04T20:58:53.726Z,57.13
2023-03-04T21:01:55.458Z,57.21
2023-03-04T21:04:57.270Z,56.87
2023-03-04T21:07:59.335Z,56.78
2023-03-04T21:11:01.916Z,56.53
2023-03-04T21:14:03.696Z,56.28
2023-03-04T21:17:05.776Z,56.26
2023-03-04T21:20:08.384Z,56.41
2023-03-04T21:23:10.497Z,56.24
2023-03-04T21:26:12.290Z,56.20
2023-03-04T21:29:19.622Z,56.21
2023-03-04T21:32:26.886Z,55.89
2023-03-04T21:35:29.029Z,55.89
2023-03-04T21:38:30.924Z,55.96
2023-03-04T21:41:32.632Z,56.02
2023-03-04T21:44:48.706Z,55.96
2023-03-04T21:47:51.733Z,56.18
2023-03-04T21:50:54.324Z,56.26
2023-03-04T21:53:56.145Z,56.59
2023-03-04T21:56:57.940Z,56.46
2023-03-04T21:59:59.801Z,56.52
2023-03-04T22:03:01.558Z,56.43
2023-03-04T22:06:08.345Z,56.71
2023-03-04T22:09:12.179Z,57.04
2023-03-04T22:12:15.832Z,57.27
2023-03-04T22:15:18.241Z,57.53
2023-03-04T22:18:20.124Z,57.66
2023-03-04T22:21:22.977Z,57.81
2023-03-04T22:24:26.260Z,58.23
2023-03-04T22:27:28.118Z,58.47
2023-03-04T22:30:33.628Z,58.54
2023-03-04T22:33:37.255Z,58.45
2023-03-04T22:36:42.222Z,58.47
2023-03-04T22:39:44.012Z,58.54
2023-03-04T22:42:47.521Z,58.64
2023-03-04T22:45:49.277Z,58.79
2023-03-04T22:48:53.008Z,58.85
2023-03-04T22:51:54.917Z,58.90
2023-03-04T22:54:56.738Z,58.74
2023-03-04T22:57:58.449Z,59.13
2023-03-04T23:01:00.350Z,59.04
2023-03-04T23:04:03.949Z,59.34
2023-03-04T23:07:05.740Z,59.51
2023-03-04T23:10:12.211Z,59.74
2023-03-04T23:13:13.993Z,59.91
2023-03-04T23:16:16.984Z,60.11
2023-03-04T23:19:19.436Z,60.22
2023-03-04T23:22:21.295Z,60.23
2023-03-04T23:25:24.974Z,60.21
2023-03-04T23:28:26.708Z,60.56
2023-03-04T23:31:30.178Z,60.46
2023-03-04T23:34:32.077Z,60.80
2023-03-04T23:37:33.887Z,60.73
2023-03-04T23:40:35.817Z,60.85
2023-03-04T23:43:37.699Z,60.60
2023-03-04T23:46:40.241Z,60.73
2023-03-04T23:49:42.078Z,60.31
2023-03-04T23:52:44.112Z,60.48
2023-03-04T23:55:46.799Z,60.18
2023-03-04T23:58:49.722Z,60.05
